Time;durP1;ratioP1;P1;durP2;ratioP2;P2;SDS_P1;SDS_P2;PMS_P1;PMS_P2;Temp;Humidity;BMP_temperature;BMP_pressure;BME280_temperature;BME280_humidity;BME280_pressure;Samples;Min_cycle;Max_cycle;Signal;HPM_P1;HPM_P2
2023/01/02 00:01:33;;;;;;;9.75;3.33;;;10.00;99.90;;;;;;5007380;28;20455;-80
2023/01/02 00:03:59;;;;;;;9.05;3.53;;;10.10;99.90;;;;;;5009745;28;20744;-80
2023/01/02 00:06:24;;;;;;;8.10;2.83;;;9.40;99.90;;;;;;5010621;28;20503;-82
2023/01/02 00:08:50;;;;;;;8.35;3.03;;;9.40;99.90;;;;;;5010813;28;20043;-78
2023/01/02 00:11:16;;;;;;;9.10;3.55;;;9.80;99.90;;;;;;5009387;28;20929;-81
2023/01/02 00:13:41;;;;;;;7.32;3.28;;;9.40;99.90;;;;;;5009510;28;20591;-80
2023/01/02 00:16:07;;;;;;;6.20;3.45;;;9.40;99.90;;;;;;5010159;28;20053;-79
2023/01/02 00:18:33;;;;;;;6.22;3.28;;;10.00;99.90;;;;;;5008842;28;20168;-82
2023/01/02 00:21:04;;;;;;;7.32;3.28;;;9.90;99.90;;;;;;5010299;28;20077;-81
2023/01/02 00:23:30;;;;;;;8.27;3.78;;;9.40;99.90;;;;;;5010559;28;20049;-81
2023/01/02 00:25:55;;;;;;;6.40;3.72;;;9.90;99.90;;;;;;5008900;28;20068;-80
2023/01/02 00:28:21;;;;;;;5.70;3.75;;;9.60;99.90;;;;;;5010374;28;20481;-79
2023/01/02 00:30:47;;;;;;;7.35;4.78;;;9.80;99.90;;;;;;5009978;28;20053;-78
2023/01/02 00:33:13;;;;;;;10.18;5.15;;;9.50;99.90;;;;;;5010115;28;20127;-80
2023/01/02 00:35:39;;;;;;;8.25;4.45;;;9.60;99.90;;;;;;5008293;28;20053;-79
2023/01/02 00:38:05;;;;;;;7.60;4.28;;;9.60;99.90;;;;;;5010335;28;20085;-79
2023/01/02 00:40:31;;;;;;;7.63;4.47;;;9.60;99.90;;;;;;4992675;28;20077;-80
2023/01/02 00:42:56;;;;;;;8.88;4.90;;;9.60;99.90;;;;;;5009098;28;20081;-80
2023/01/02 00:45:22;;;;;;;7.80;4.63;;;10.10;99.90;;;;;;5008754;28;20064;-81
2023/01/02 00:47:48;;;;;;;8.82;4.10;;;9.80;99.90;;;;;;5009904;28;20046;-80
2023/01/02 00:50:13;;;;;;;8.68;4.28;;;9.70;99.90;;;;;;5009987;28;20041;-79
2023/01/02 00:52:39;;;;;;;6.32;3.80;;;9.70;99.90;;;;;;5009719;28;20057;-80
2023/01/02 00:55:05;;;;;;;7.10;3.60;;;9.80;99.90;;;;;;5008825;28;20091;-79
2023/01/02 00:57:30;;;;;;;6.13;3.85;;;9.80;99.90;;;;;;5008733;28;20099;-79
2023/01/02 00:59:56;;;;;;;7.38;3.88;;;10.50;99.90;;;;;;5010197;28;20475;-80
2023/01/02 01:02:22;;;;;;;6.18;3.90;;;10.40;99.90;;;;;;5008756;28;20516;-79
2023/01/02 01:04:47;;;;;;;6.10;3.30;;;9.90;99.90;;;;;;5008260;28;20046;-79
2023/01/02 01:07:13;;;;;;;7.38;3.65;;;9.90;99.90;;;;;;5009730;28;20073;-78
2023/01/02 01:09:39;;;;;;;8.02;3.75;;;10.00;99.90;;;;;;5008632;28;20507;-78
2023/01/02 01:12:04;;;;;;;7.05;3.72;;;10.50;99.90;;;;;;5008592;28;20125;-78
2023/01/02 01:14:30;;;;;;;8.00;3.83;;;10.00;99.90;;;;;;5008736;28;20046;-78
2023/01/02 01:16:56;;;;;;;5.35;3.17;;;10.10;99.90;;;;;;5009483;28;20527;-78
2023/01/02 01:19:22;;;;;;;6.40;4.10;;;10.10;99.90;;;;;;5009348;28;20054;-78
2023/01/02 01:21:47;;;;;;;6.63;3.95;;;10.10;99.90;;;;;;5008282;28;20085;-78
2023/01/02 01:24:14;;;;;;;7.22;4.18;;;10.50;99.90;;;;;;5009346;28;20124;-79
2023/01/02 01:26:40;;;;;;;7.88;4.32;;;10.10;99.90;;;;;;5009223;28;20057;-78
2023/01/02 01:29:06;;;;;;;8.13;4.40;;;10.30;99.90;;;;;;5009427;28;20085;-79
2023/01/02 01:31:31;;;;;;;7.63;4.30;;;10.50;99.90;;;;;;5009641;28;20076;-79
2023/01/02 01:33:58;;;;;;;6.40;4.00;;;10.20;99.90;;;;;;5008006;28;20395;-79
2023/01/02 01:36:24;;;;;;;8.05;4.97;;;10.50;99.90;;;;;;5009083;28;20118;-80
2023/01/02 01:38:50;;;;;;;8.10;4.70;;;10.20;99.90;;;;;;5009203;28;20576;-79
2023/01/02 01:41:19;;;;;;;9.90;5.10;;;10.20;99.90;;;;;;5008172;28;20052;-80
2023/01/02 01:43:51;;;;;;;8.23;5.38;;;10.30;99.90;;;;;;5009005;28;20040;-80
2023/01/02 01:46:22;;;;;;;11.20;5.10;;;10.30;99.90;;;;;;5009119;28;20107;-80
2023/01/02 01:48:58;;;;;;;10.77;6.45;;;10.70;99.90;;;;;;5008770;28;20117;-80
2023/01/02 01:51:25;;;;;;;9.43;5.65;;;10.30;99.90;;;;;;5008751;28;20407;-80
2023/01/02 01:53:56;;;;;;;10.88;6.03;;;10.30;99.90;;;;;;5009258;28;20062;-80
2023/01/02 01:56:22;;;;;;;11.55;6.97;;;10.70;99.90;;;;;;5008960;28;20127;-79
2023/01/02 01:58:48;;;;;;;9.52;6.18;;;10.30;99.90;;;;;;5008994;28;20125;-81
2023/01/02 02:01:16;;;;;;;10.90;6.55;;;10.40;99.90;;;;;;5008859;28;20125;-81
2023/01/02 02:03:45;;;;;;;15.05;6.88;;;10.40;99.90;;;;;;5008942;28;20046;-82
2023/01/02 02:06:10;;;;;;;10.40;6.65;;;10.40;99.90;;;;;;5008422;28;20115;-79
2023/01/02 02:08:52;;;;;;;12.82;7.40;;;10.40;99.90;;;;;;5007813;28;20057;-83
2023/01/02 02:11:18;;;;;;;13.20;7.18;;;10.40;99.90;;;;;;4990928;28;20489;-81
2023/01/02 02:13:45;;;;;;;10.32;6.78;;;10.40;99.90;;;;;;4989711;28;20520;-80
2023/01/02 02:16:14;;;;;;;10.30;6.93;;;10.50;99.90;;;;;;4989211;28;20045;-80
2023/01/02 02:18:51;;;;;;;11.45;7.00;;;10.50;99.90;;;;;;4987956;28;20133;-80
2023/01/02 02:21:47;;;;;;;13.20;7.00;;;10.50;99.90;;;;;;4987749;28;20058;-80
2023/01/02 02:24:32;;;;;;;12.50;7.03;;;10.50;99.90;;;;;;5007670;28;20099;-80
2023/01/02 02:27:26;;;;;;;12.68;7.60;;;10.90;99.90;;;;;;5008054;28;20057;-79
2023/01/02 02:30:06;;;;;;;11.73;6.65;;;10.50;99.90;;;;;;5007725;28;20066;-80
2023/01/02 02:32:35;;;;;;;9.98;6.90;;;10.60;99.90;;;;;;5007596;28;20417;-80
2023/01/02 02:35:10;;;;;;;10.60;7.30;;;10.60;99.90;;;;;;5006997;28;20053;-80
2023/01/02 02:38:02;;;;;;;10.40;7.13;;;10.60;99.90;;;;;;5007369;28;20107;-79
2023/01/02 02:40:54;;;;;;;14.18;8.40;;;10.60;99.90;;;;;;5005254;28;20064;-81
2023/01/02 02:43:37;;;;;;;11.07;7.55;;;10.80;99.90;;;;;;5008596;28;20058;-82
2023/01/02 02:46:37;;;;;;;12.88;7.60;;;10.60;99.90;;;;;;5007628;28;20075;-81
2023/01/02 02:49:09;;;;;;;11.60;8.05;;;10.60;99.90;;;;;;4999848;28;20062;-79
2023/01/02 02:51:41;;;;;;;13.20;7.57;;;10.70;99.90;;;;;;5008248;28;20042;-83
2023/01/02 02:54:44;;;;;;;13.00;8.02;;;11.10;99.90;;;;;;5008318;28;20054;-80
2023/01/02 02:57:11;;;;;;;12.88;8.38;;;11.10;99.90;;;;;;4986192;28;20050;-78
2023/01/02 02:59:38;;;;;;;12.90;8.32;;;10.70;99.90;;;;;;4970442;28;20408;-79
2023/01/02 03:02:04;;;;;;;11.82;7.75;;;10.70;99.90;;;;;;4985790;28;20143;-80
2023/01/02 03:04:29;;;;;;;12.90;8.55;;;11.30;99.90;;;;;;4983961;28;20451;-79
2023/01/02 03:07:15;;;;;;;11.73;7.95;;;10.90;99.90;;;;;;4950707;28;20069;-79
2023/01/02 03:09:56;;;;;;;15.70;8.10;;;10.70;99.90;;;;;;4967124;28;20046;-80
2023/01/02 03:12:41;;;;;;;16.92;8.35;;;10.70;99.90;;;;;;4966874;28;20071;-78
2023/01/02 03:15:15;;;;;;;16.75;7.68;;;10.70;99.90;;;;;;4951367;28;20198;-80
2023/01/02 03:18:13;;;;;;;13.93;7.88;;;10.70;99.90;;;;;;4969774;28;20162;-79
2023/01/02 03:20:47;;;;;;;11.90;7.43;;;11.20;99.90;;;;;;4928392;29;20079;-80
2023/01/02 03:23:20;;;;;;;12.15;7.40;;;11.10;99.90;;;;;;4912369;28;20091;-80
2023/01/02 03:25:46;;;;;;;10.57;7.28;;;11.20;99.90;;;;;;4927927;29;20077;-79
2023/01/02 03:28:16;;;;;;;13.85;8.43;;;10.80;99.90;;;;;;4929841;28;20094;-79
2023/01/02 03:30:44;;;;;;;11.85;8.43;;;10.80;99.90;;;;;;4928391;28;20070;-78
2023/01/02 03:33:15;;;;;;;14.20;8.90;;;11.20;99.90;;;;;;4964876;28;20129;-78
2023/01/02 03:35:47;;;;;;;14.55;9.10;;;10.80;99.90;;;;;;4966100;28;20121;-78
2023/01/02 03:38:21;;;;;;;21.60;9.90;;;11.30;99.90;;;;;;4946396;28;20435;-80
2023/01/02 03:40:54;;;;;;;18.13;10.20;;;11.20;99.90;;;;;;4965920;28;20093;-79
2023/01/02 03:43:28;;;;;;;21.15;11.82;;;11.00;99.90;;;;;;4965747;28;20713;-80
2023/01/02 03:46:02;;;;;;;23.42;10.43;;;11.00;99.90;;;;;;4966219;28;20615;-79
2023/01/02 03:48:39;;;;;;;19.45;10.75;;;11.30;99.90;;;;;;4949969;28;20425;-78
2023/01/02 03:51:06;;;;;;;23.98;9.88;;;10.90;99.90;;;;;;5033836;28;20134;-77
2023/01/02 03:53:35;;;;;;;19.60;10.23;;;11.10;99.90;;;;;;4965873;28;20137;-79
2023/01/02 03:56:17;;;;;;;21.05;10.43;;;11.60;99.90;;;;;;4966029;28;20058;-78
2023/01/02 03:59:02;;;;;;;25.65;11.13;;;10.90;99.90;;;;;;5002884;28;20072;-78
2023/01/02 04:01:37;;;;;;;21.73;10.68;;;10.90;99.90;;;;;;5007026;28;20050;-80
2023/01/02 04:04:13;;;;;;;18.17;11.40;;;11.10;99.90;;;;;;5005918;28;20147;-79
2023/01/02 04:06:44;;;;;;;23.50;11.60;;;10.90;99.90;;;;;;5007097;28;20053;-78
2023/01/02 04:09:15;;;;;;;19.10;10.75;;;10.90;99.90;;;;;;5005579;28;20042;-78
2023/01/02 04:11:45;;;;;;;17.58;11.65;;;10.90;99.90;;;;;;5007118;28;20057;-79
2023/01/02 04:14:17;;;;;;;17.00;10.60;;;11.20;99.90;;;;;;5007075;28;20050;-78
2023/01/02 04:16:44;;;;;;;20.45;10.95;;;10.90;99.90;;;;;;5004878;28;20110;-79
2023/01/02 04:19:27;;;;;;;20.55;10.93;;;11.50;99.90;;;;;;5007145;28;20532;-77
2023/01/02 04:21:56;;;;;;;18.92;12.00;;;10.90;99.90;;;;;;5007120;28;20046;-79
2023/01/02 04:24:32;;;;;;;18.75;10.85;;;10.90;99.90;;;;;;5006814;28;20500;-78
2023/01/02 04:27:18;;;;;;;22.13;11.55;;;10.90;99.90;;;;;;5005558;28;20046;-78
2023/01/02 04:29:44;;;;;;;21.00;12.48;;;10.90;99.90;;;;;;5007225;28;20096;-78
2023/01/02 04:32:18;;;;;;;23.73;12.05;;;11.10;99.90;;;;;;5003135;28;20532;-82
2023/01/02 04:34:46;;;;;;;23.08;11.77;;;11.20;99.90;;;;;;5007079;28;20078;-78
2023/01/02 04:37:35;;;;;;;23.60;12.05;;;10.90;99.90;;;;;;5007055;28;20042;-78
2023/01/02 04:40:24;;;;;;;21.90;12.57;;;10.90;99.90;;;;;;5005397;28;20599;-78
2023/01/02 04:42:50;;;;;;;21.02;11.30;;;10.90;99.90;;;;;;5006902;28;20054;-79
2023/01/02 04:45:16;;;;;;;15.77;10.50;;;11.50;99.90;;;;;;5006590;28;20511;-80
2023/01/02 04:47:42;;;;;;;20.38;10.27;;;10.90;99.90;;;;;;5006730;28;20045;-79
2023/01/02 04:50:09;;;;;;;19.73;10.40;;;10.90;99.90;;;;;;5093572;28;20122;-80
2023/01/02 04:52:34;;;;;;;20.65;10.27;;;10.90;99.90;;;;;;4992011;28;20072;-79
2023/01/02 04:55:00;;;;;;;19.55;10.13;;;11.00;99.90;;;;;;5010175;28;20046;-81
2023/01/02 04:57:26;;;;;;;20.52;9.95;;;11.00;99.90;;;;;;5009670;28;20038;-79
2023/01/02 04:59:51;;;;;;;16.42;9.70;;;11.30;99.90;;;;;;5008596;28;20080;-79
2023/01/02 05:02:17;;;;;;;12.85;9.43;;;11.00;99.90;;;;;;5008357;28;20818;-79
2023/01/02 05:04:43;;;;;;;14.40;8.57;;;11.20;99.90;;;;;;5009557;28;20396;-79
2023/01/02 05:07:08;;;;;;;13.93;8.25;;;11.60;99.90;;;;;;5008324;28;20496;-80
2023/01/02 05:09:34;;;;;;;12.52;8.55;;;11.50;99.90;;;;;;5010018;28;20044;-83
2023/01/02 05:11:59;;;;;;;14.18;8.77;;;11.10;99.90;;;;;;5007934;28;20106;-81
2023/01/02 05:14:25;;;;;;;13.15;8.30;;;11.00;99.90;;;;;;5008550;28;20115;-80
2023/01/02 05:16:51;;;;;;;14.68;8.40;;;11.00;99.90;;;;;;5009622;28;20511;-81
2023/01/02 05:19:16;;;;;;;13.77;8.40;;;10.90;99.90;;;;;;5009610;28;20076;-81
2023/01/02 05:24:26;;;;;;;15.80;9.87;;;10.90;99.90;;;;;;5009719;28;20058;-80
2023/01/02 05:26:53;;;;;;;13.05;8.63;;;10.90;99.90;;;;;;5009209;28;20056;-81
2023/01/02 05:29:18;;;;;;;12.20;8.73;;;10.90;99.90;;;;;;5008313;28;20062;-82
2023/01/02 05:31:44;;;;;;;13.43;8.35;;;10.90;99.90;;;;;;5009187;28;20098;-80
2023/01/02 05:34:13;;;;;;;13.55;8.63;;;10.90;99.90;;;;;;5009573;28;20042;-80
2023/01/02 05:36:39;;;;;;;12.32;8.05;;;11.10;99.90;;;;;;5008410;28;20057;-81
2023/01/02 05:39:10;;;;;;;12.68;8.13;;;10.90;99.90;;;;;;5009771;28;20046;-81
2023/01/02 05:41:38;;;;;;;9.55;6.82;;;10.90;99.90;;;;;;5009550;28;20049;-81
2023/01/02 05:44:05;;;;;;;11.68;7.07;;;11.00;99.90;;;;;;5007486;28;20054;-82
2023/01/02 05:46:30;;;;;;;10.25;7.15;;;11.20;99.90;;;;;;5009078;28;20053;-82
2023/01/02 05:48:56;;;;;;;10.32;6.43;;;10.90;99.90;;;;;;5007939;28;20049;-82
2023/01/02 05:51:22;;;;;;;10.77;6.53;;;11.20;99.90;;;;;;5009043;28;20700;-83
2023/01/02 05:53:47;;;;;;;11.55;6.95;;;11.10;99.90;;;;;;5007745;28;20065;-82
2023/01/02 05:56:15;;;;;;;8.52;6.32;;;11.50;99.90;;;;;;5009002;28;20124;-82
2023/01/02 05:58:43;;;;;;;8.52;6.10;;;11.00;99.90;;;;;;5008186;28;20820;-81
2023/01/02 06:01:12;;;;;;;9.70;6.03;;;11.00;99.90;;;;;;5006765;28;20434;-81
2023/01/02 06:03:38;;;;;;;8.27;5.43;;;11.00;99.90;;;;;;5007799;28;20688;-81
2023/01/02 06:06:09;;;;;;;8.52;5.40;;;11.30;99.90;;;;;;5007733;28;20489;-83
2023/01/02 06:08:35;;;;;;;7.30;5.38;;;11.00;99.90;;;;;;5009118;28;20038;-83
2023/01/02 06:11:02;;;;;;;6.90;4.90;;;11.30;99.90;;;;;;5007689;28;20441;-81
2023/01/02 06:13:32;;;;;;;6.82;4.97;;;11.00;99.90;;;;;;5008414;28;20476;-81
2023/01/02 06:15:59;;;;;;;5.90;3.88;;;11.10;99.90;;;;;;5008390;28;20118;-82
2023/01/02 06:18:26;;;;;;;4.03;2.33;;;11.00;99.90;;;;;;5008876;28;20179;-81
2023/01/02 06:20:56;;;;;;;6.13;3.00;;;11.00;99.90;;;;;;5008547;28;20049;-82
2023/01/02 06:23:21;;;;;;;5.93;3.95;;;11.70;99.90;;;;;;5008571;28;20598;-81
2023/01/02 06:25:47;;;;;;;4.15;2.90;;;11.00;99.90;;;;;;5008444;28;20050;-81
2023/01/02 06:28:13;;;;;;;5.60;3.20;;;11.00;99.90;;;;;;5008448;28;20058;-81
2023/01/02 06:30:38;;;;;;;6.38;3.55;;;11.00;99.90;;;;;;5007864;28;20088;-82
2023/01/02 06:33:04;;;;;;;6.70;3.75;;;11.00;99.90;;;;;;5008646;28;20068;-83
2023/01/02 06:35:29;;;;;;;4.20;3.17;;;11.00;99.90;;;;;;5008415;28;20078;-81
2023/01/02 06:37:55;;;;;;;5.10;3.75;;;11.20;99.90;;;;;;5008975;28;20045;-82
2023/01/02 06:40:21;;;;;;;4.82;3.03;;;11.40;99.90;;;;;;5008622;28;20128;-83
2023/01/02 06:42:46;;;;;;;5.80;3.75;;;11.40;99.90;;;;;;5008396;28;20392;-80
2023/01/02 06:45:12;;;;;;;5.60;4.30;;;10.90;99.90;;;;;;5008310;28;20053;-82
2023/01/02 06:47:38;;;;;;;7.10;4.38;;;10.90;99.90;;;;;;5007223;28;20060;-80
2023/01/02 06:50:04;;;;;;;6.85;5.00;;;10.90;99.90;;;;;;5008493;28;20041;-81
2023/01/02 06:52:29;;;;;;;7.82;5.38;;;10.80;99.90;;;;;;5008243;28;20061;-81
2023/01/02 06:54:55;;;;;;;6.57;4.80;;;10.80;99.90;;;;;;5008033;28;20053;-82
2023/01/02 06:57:20;;;;;;;7.40;4.82;;;10.70;99.90;;;;;;5008022;28;20408;-81
2023/01/02 06:59:46;;;;;;;6.20;4.65;;;11.30;99.90;;;;;;5007705;28;20038;-82
2023/01/02 07:02:12;;;;;;;6.80;4.88;;;10.60;99.90;;;;;;5007606;28;20057;-80
2023/01/02 07:04:38;;;;;;;7.05;4.93;;;11.00;99.90;;;;;;5008055;28;20048;-80
2023/01/02 07:07:04;;;;;;;8.18;4.47;;;10.90;99.90;;;;;;5008004;28;20034;-79
2023/01/02 07:09:30;;;;;;;7.80;5.28;;;10.50;99.90;;;;;;5006542;28;20045;-79
2023/01/02 07:11:57;;;;;;;7.80;5.32;;;10.80;99.90;;;;;;5007522;28;20053;-80
2023/01/02 07:14:23;;;;;;;8.25;5.47;;;10.70;99.90;;;;;;5007521;28;20092;-80
2023/01/02 07:16:50;;;;;;;7.43;4.55;;;10.10;99.90;;;;;;5005964;28;20084;-79
2023/01/02 07:19:15;;;;;;;7.78;4.05;;;9.90;99.90;;;;;;5007460;28;20085;-79
2023/01/02 07:21:41;;;;;;;9.05;4.50;;;9.90;99.90;;;;;;5006352;28;20093;-82
2023/01/02 07:24:11;;;;;;;6.43;3.30;;;9.80;99.90;;;;;;5006369;28;20087;-80
2023/01/02 07:26:37;;;;;;;5.18;2.53;;;9.60;99.90;;;;;;5007790;28;20065;-82
2023/01/02 07:29:02;;;;;;;5.72;2.10;;;9.60;99.90;;;;;;5004755;28;20103;-79
2023/01/02 07:31:28;;;;;;;3.08;1.30;;;9.80;99.90;;;;;;5005699;28;20126;-79
2023/01/02 07:33:54;;;;;;;4.20;1.20;;;9.30;99.90;;;;;;5007086;28;20050;-80
2023/01/02 07:36:23;;;;;;;2.30;0.73;;;9.20;99.90;;;;;;5007252;28;20404;-80
2023/01/02 07:38:56;;;;;;;3.33;0.50;;;9.00;99.90;;;;;;5007449;28;20060;-81
2023/01/02 07:41:24;;;;;;;4.53;0.60;;;8.80;99.90;;;;;;5007551;28;20042;-78
2023/01/02 07:43:51;;;;;;;2.35;0.60;;;8.70;99.90;;;;;;5007645;28;20092;-80
2023/01/02 07:46:18;;;;;;;2.40;0.65;;;8.70;99.90;;;;;;5005963;28;20060;-82
2023/01/02 07:48:44;;;;;;;3.13;0.70;;;8.60;99.90;;;;;;5007386;28;20049;-81
2023/01/02 07:51:11;;;;;;;1.38;0.50;;;8.60;99.90;;;;;;5007038;28;20123;-81
2023/01/02 07:53:37;;;;;;;3.58;0.77;;;8.80;99.90;;;;;;5007583;28;20054;-81
2023/01/02 07:56:04;;;;;;;3.60;0.82;;;8.50;99.90;;;;;;5007527;28;20081;-80
2023/01/02 07:58:30;;;;;;;3.53;0.80;;;8.80;99.90;;;;;;5007323;28;20538;-80
2023/01/02 08:00:57;;;;;;;4.28;0.77;;;8.40;99.90;;;;;;5006645;28;20621;-78
2023/01/02 08:03:23;;;;;;;1.95;0.68;;;8.40;99.90;;;;;;5006748;28;20099;-79
2023/01/02 08:05:49;;;;;;;2.80;0.70;;;9.00;99.90;;;;;;5006552;28;20050;-79
2023/01/02 08:08:15;;;;;;;3.80;0.80;;;8.30;99.90;;;;;;5005376;28;20042;-80
2023/01/02 08:10:41;;;;;;;4.72;1.20;;;8.30;99.90;;;;;;5023575;28;20036;-79
2023/01/02 08:13:07;;;;;;;2.42;0.95;;;8.20;99.90;;;;;;5126025;28;20526;-81
2023/01/02 08:15:33;;;;;;;3.38;1.20;;;9.00;99.90;;;;;;5110141;28;20045;-79
2023/01/02 08:17:59;;;;;;;5.25;1.10;;;8.20;99.90;;;;;;5110007;28;20402;-79
2023/01/02 08:20:25;;;;;;;2.63;1.00;;;8.20;99.90;;;;;;5109513;28;20088;-79
2023/01/02 08:22:51;;;;;;;4.90;1.30;;;8.20;99.90;;;;;;5080955;28;20121;-78
2023/01/02 08:25:17;;;;;;;2.70;1.20;;;8.20;99.90;;;;;;5008097;28;20073;-79
2023/01/02 08:27:43;;;;;;;3.17;1.17;;;8.20;99.90;;;;;;5010545;28;20081;-80
2023/01/02 08:30:09;;;;;;;4.30;1.65;;;8.50;99.90;;;;;;5010158;28;20446;-80
2023/01/02 08:32:37;;;;;;;3.00;1.40;;;8.20;99.90;;;;;;5010084;28;20052;-80
2023/01/02 08:35:05;;;;;;;7.07;1.90;;;8.20;99.90;;;;;;5008716;28;20129;-79
2023/01/02 08:37:30;;;;;;;3.72;1.02;;;8.20;99.90;;;;;;5010426;28;20046;-79
2023/01/02 08:39:56;;;;;;;5.72;1.20;;;8.10;99.90;;;;;;5010237;28;20046;-80
2023/01/02 08:42:22;;;;;;;7.60;1.98;;;8.10;99.90;;;;;;5010207;28;20042;-79
2023/01/02 08:44:47;;;;;;;2.78;1.13;;;8.10;99.90;;;;;;5009040;28;20062;-78
2023/01/02 08:47:13;;;;;;;4.00;1.13;;;8.10;99.90;;;;;;5009857;28;20049;-81
2023/01/02 08:49:38;;;;;;;4.30;1.50;;;8.10;99.90;;;;;;5008823;28;20041;-79
2023/01/02 08:52:04;;;;;;;3.53;1.35;;;8.10;99.90;;;;;;5008254;28;20531;-80
2023/01/02 08:54:30;;;;;;;6.20;1.58;;;8.10;99.90;;;;;;5010198;28;20050;-79
2023/01/02 08:56:56;;;;;;;8.50;1.73;;;8.10;99.90;;;;;;5010111;28;20049;-80
2023/01/02 08:59:23;;;;;;;4.53;1.60;;;8.10;99.90;;;;;;5010196;28;20690;-79
2023/01/02 09:01:49;;;;;;;2.30;0.95;;;8.60;99.90;;;;;;5002039;28;20400;-77
2023/01/02 09:04:15;;;;;;;4.30;1.75;;;8.10;99.90;;;;;;4990633;28;20125;-77
2023/01/02 09:06:42;;;;;;;3.45;1.45;;;8.10;99.90;;;;;;5005059;28;20071;-77
2023/01/02 09:09:09;;;;;;;4.35;1.52;;;8.10;99.90;;;;;;5010294;28;20088;-78
2023/01/02 09:11:38;;;;;;;3.58;1.75;;;8.70;99.90;;;;;;5009840;28;20522;-77
2023/01/02 09:14:04;;;;;;;6.63;1.60;;;8.60;99.90;;;;;;5009748;28;20061;-76
2023/01/02 09:16:31;;;;;;;8.02;2.17;;;8.10;99.90;;;;;;5008720;28;20116;-77
2023/01/02 09:18:59;;;;;;;3.65;1.60;;;8.60;99.90;;;;;;4992573;28;20489;-81
2023/01/02 09:21:25;;;;;;;3.53;1.83;;;8.10;99.90;;;;;;4994123;28;20096;-78
2023/01/02 09:23:51;;;;;;;5.85;1.83;;;8.00;99.90;;;;;;5009389;28;20050;-80
2023/01/02 09:26:17;;;;;;;8.20;1.70;;;8.00;99.90;;;;;;5009638;28;20069;-79
2023/01/02 09:28:43;;;;;;;4.88;1.90;;;8.00;99.90;;;;;;5009296;28;20500;-79
2023/01/02 09:31:11;;;;;;;7.65;2.13;;;8.30;99.90;;;;;;5022851;28;20107;-79
2023/01/02 09:33:38;;;;;;;4.95;1.85;;;8.10;99.90;;;;;;5009137;28;20448;-80
2023/01/02 09:36:05;;;;;;;5.80;2.20;;;8.10;99.90;;;;;;5008208;28;20046;-79
2023/01/02 09:38:31;;;;;;;9.57;2.10;;;8.10;99.90;;;;;;5009075;28;20053;-79
2023/01/02 09:40:59;;;;;;;8.43;2.40;;;8.10;99.90;;;;;;5009363;28;20053;-79
2023/01/02 09:43:51;;;;;;;6.15;2.60;;;8.10;99.90;;;;;;5009106;28;20046;-78
2023/01/02 09:46:46;;;;;;;5.90;2.35;;;8.80;99.90;;;;;;5009463;28;20049;-79
2023/01/02 09:49:15;;;;;;;8.32;2.75;;;8.10;99.90;;;;;;5000183;28;20057;-78
2023/01/02 09:51:42;;;;;;;8.30;2.60;;;8.10;99.90;;;;;;5008966;28;20517;-78
2023/01/02 09:54:29;;;;;;;8.30;2.63;;;8.10;99.90;;;;;;5008655;28;20102;-79
2023/01/02 09:57:17;;;;;;;7.85;2.90;;;8.10;99.90;;;;;;5007315;28;20485;-79
2023/01/02 09:59:55;;;;;;;8.10;2.85;;;8.10;99.90;;;;;;4989645;28;20450;-78
2023/01/02 10:02:53;;;;;;;6.85;2.80;;;8.20;99.90;;;;;;4989788;28;20057;-79
2023/01/02 10:05:31;;;;;;;6.15;2.97;;;8.20;99.90;;;;;;5001311;28;20057;-78
2023/01/02 10:08:21;;;;;;;7.60;2.80;;;8.20;99.90;;;;;;5008969;28;20087;-79
2023/01/02 10:10:56;;;;;;;5.18;2.60;;;8.20;99.90;;;;;;5010036;28;20121;-78
2023/01/02 10:13:42;;;;;;;6.60;2.80;;;8.20;99.90;;;;;;5008626;28;20054;-78
2023/01/02 10:16:14;;;;;;;4.90;2.22;;;8.10;99.90;;;;;;5007779;28;20580;-78
2023/01/02 10:18:44;;;;;;;4.90;2.00;;;8.20;99.90;;;;;;5009045;28;20046;-77
2023/01/02 10:21:33;;;;;;;4.43;1.52;;;8.20;99.90;;;;;;5009245;28;20041;-76
2023/01/02 10:24:08;;;;;;;7.57;2.05;;;8.20;99.90;;;;;;5008334;28;20042;-79
2023/01/02 10:26:37;;;;;;;4.38;1.73;;;8.20;99.90;;;;;;5008484;28;20061;-75
2023/01/02 10:29:27;;;;;;;4.82;1.48;;;8.20;99.90;;;;;;5008807;28;20053;-77
2023/01/02 10:31:59;;;;;;;4.57;1.02;;;8.20;99.90;;;;;;5007458;28;20054;-78
2023/01/02 10:34:40;;;;;;;5.95;1.20;;;8.20;99.90;;;;;;5008447;28;20058;-77
2023/01/02 10:37:13;;;;;;;4.82;1.17;;;8.20;99.90;;;;;;5008334;28;20081;-77
2023/01/02 10:39:41;;;;;;;3.05;1.00;;;8.20;99.90;;;;;;5008261;28;20126;-78
2023/01/02 10:42:10;;;;;;;5.90;1.25;;;8.30;99.90;;;;;;5008268;28;20068;-77
2023/01/02 10:44:40;;;;;;;4.93;1.77;;;8.30;99.90;;;;;;5008308;28;20057;-78
2023/01/02 10:47:24;;;;;;;2.97;1.17;;;8.30;99.90;;;;;;5007678;28;20393;-79
2023/01/02 10:49:52;;;;;;;4.43;1.48;;;8.30;99.90;;;;;;5008405;28;20113;-79
2023/01/02 10:52:23;;;;;;;5.50;1.90;;;8.30;99.90;;;;;;5007936;28;20412;-77
2023/01/02 10:54:55;;;;;;;8.32;2.00;;;8.30;99.90;;;;;;5008064;28;20467;-78
2023/01/02 10:57:41;;;;;;;5.90;1.70;;;8.30;99.90;;;;;;5007139;28;20042;-77
2023/01/02 11:00:25;;;;;;;9.00;1.83;;;8.30;99.90;;;;;;5008092;28;20618;-75
2023/01/02 11:02:59;;;;;;;5.40;1.60;;;9.20;99.90;;;;;;5008353;28;20522;-76
2023/01/02 11:05:30;;;;;;;3.95;1.50;;;8.40;99.90;;;;;;5008028;28;20488;-76
2023/01/02 11:07:56;;;;;;;6.63;1.85;;;8.40;99.90;;;;;;5007837;28;20128;-77
2023/01/02 11:10:48;;;;;;;5.65;1.38;;;8.40;99.90;;;;;;5008279;28;20117;-77
2023/01/02 11:13:20;;;;;;;6.15;1.60;;;8.40;99.90;;;;;;5005044;28;20054;-77
2023/01/02 11:15:55;;;;;;;7.18;2.00;;;8.50;99.90;;;;;;5006955;28;20132;-77
2023/01/02 11:18:28;;;;;;;5.63;1.75;;;8.50;99.90;;;;;;5006530;28;20137;-78
2023/01/02 11:21:02;;;;;;;5.43;1.70;;;9.00;99.90;;;;;;5007830;28;20137;-78
2023/01/02 11:23:32;;;;;;;9.93;2.00;;;8.50;99.90;;;;;;5007524;28;20118;-78
2023/01/02 11:25:59;;;;;;;8.02;1.50;;;9.20;99.90;;;;;;5007560;28;20507;-76
2023/01/02 11:28:27;;;;;;;9.30;2.00;;;8.60;99.90;;;;;;5007721;28;20050;-77
2023/01/02 11:31:00;;;;;;;13.50;2.25;;;8.70;99.90;;;;;;5007933;28;20407;-76
2023/01/02 11:33:29;;;;;;;5.43;1.80;;;8.90;99.90;;;;;;5006211;28;20128;-78
2023/01/02 11:36:02;;;;;;;11.13;2.05;;;9.00;99.90;;;;;;5007497;28;20117;-79
2023/01/02 11:38:48;;;;;;;11.68;2.00;;;9.00;99.90;;;;;;5092044;28;20088;-77
2023/01/02 11:43:47;;;;;;;5.07;1.70;;;9.00;99.90;;;;;;5006298;28;20495;-78
2023/01/02 11:44:20;;;;;;;5.20;1.70;;;9.00;99.90;;;;;;4987600;28;20054;-78
2023/01/02 11:46:46;;;;;;;7.72;1.73;;;9.70;99.90;;;;;;4987967;28;20042;-80
2023/01/02 11:49:37;;;;;;;7.80;1.77;;;9.80;99.90;;;;;;4988074;28;20050;-79
2023/01/02 11:52:04;;;;;;;7.03;1.60;;;9.10;99.90;;;;;;4965684;28;20096;-80
2023/01/02 11:54:40;;;;;;;6.60;2.00;;;9.10;99.90;;;;;;4965644;28;20051;-78
2023/01/02 11:57:15;;;;;;;10.25;1.40;;;9.10;99.90;;;;;;4965739;28;20054;-78
2023/01/02 11:59:46;;;;;;;7.95;2.00;;;9.00;99.90;;;;;;4964367;28;20050;-79
2023/01/02 12:02:39;;;;;;;6.75;1.73;;;8.90;99.90;;;;;;4965890;28;20053;-77
2023/01/02 12:05:31;;;;;;;8.95;1.27;;;8.90;99.90;;;;;;4949333;28;20055;-77
2023/01/02 12:08:09;;;;;;;6.85;1.35;;;8.90;99.90;;;;;;4965309;28;20078;-77
2023/01/02 12:11:11;;;;;;;15.80;1.90;;;9.10;99.90;;;;;;4965626;28;20062;-79
2023/01/02 12:13:53;;;;;;;10.02;1.45;;;8.80;99.90;;;;;;4962335;28;20098;-78
2023/01/02 12:16:32;;;;;;;6.22;1.48;;;8.80;99.90;;;;;;4965606;28;20066;-79
2023/01/02 12:19:07;;;;;;;12.15;1.33;;;9.40;99.90;;;;;;4949489;28;20051;-77
2023/01/02 12:21:43;;;;;;;;;;;8.80;99.90;;;;;;4946522;29;20055;-77
2023/01/02 12:24:31;;;;;;;10.13;1.35;;;8.80;99.90;;;;;;4946251;29;19929;-77
2023/01/02 12:27:11;;;;;;;8.52;1.45;;;8.80;99.90;;;;;;4946227;29;20125;-78
2023/01/02 12:29:52;;;;;;;12.73;1.67;;;8.80;99.90;;;;;;4982571;28;20069;-77
2023/01/02 12:32:39;;;;;;;8.40;1.40;;;8.90;99.90;;;;;;5007205;28;20765;-78
2023/01/02 12:35:43;;;;;;;11.52;1.52;;;8.80;99.90;;;;;;5007282;28;20124;-77
2023/01/02 12:38:11;;;;;;;8.43;1.77;;;8.80;99.90;;;;;;5005695;28;20092;-78
2023/01/02 12:41:02;;;;;;;9.57;1.38;;;8.90;99.90;;;;;;5006744;28;20046;-78
2023/01/02 12:43:39;;;;;;;11.52;1.40;;;8.80;99.90;;;;;;5006700;28;20053;-78
2023/01/02 12:46:43;;;;;;;9.77;1.40;;;9.60;99.90;;;;;;5004964;28;20061;-77
2023/01/02 12:49:24;;;;;;;14.20;2.05;;;8.80;99.90;;;;;;5044928;28;20118;-78
2023/01/02 12:52:04;;;;;;;10.77;1.85;;;9.30;99.90;;;;;;5046535;28;20132;-78
2023/01/02 12:54:39;;;;;;;7.63;1.52;;;8.80;99.90;;;;;;5046502;28;20581;-77
2023/01/02 12:57:15;;;;;;;11.68;1.67;;;8.80;99.90;;;;;;5046639;28;20119;-77
2023/01/02 13:00:14;;;;;;;19.08;2.03;;;8.80;99.90;;;;;;5046543;28;20057;-78
2023/01/02 13:02:56;;;;;;;11.00;2.05;;;8.90;99.90;;;;;;5045980;28;20076;-78
2023/01/02 13:05:31;;;;;;;17.92;1.70;;;8.90;99.90;;;;;;5046841;28;20051;-79
2023/01/02 13:08:03;;;;;;;9.45;1.92;;;9.10;99.90;;;;;;5046697;28;20092;-79
2023/01/02 13:10:29;;;;;;;16.55;1.65;;;9.10;99.90;;;;;;5048371;28;20099;-79
2023/01/02 13:12:57;;;;;;;14.48;2.30;;;8.90;99.90;;;;;;5048269;28;20061;-76